createdAt,value
2022-12-11T00:01:35.870Z,0
2022-12-11T00:06:37.309Z,0.88715
2022-12-11T00:11:38.990Z,0
2022-12-11T00:16:40.545Z,0
2022-12-11T00:21:42.118Z,0
2022-12-11T00:26:43.687Z,0
2022-12-11T00:31:45.136Z,0
2022-12-11T00:36:46.706Z,0
2022-12-11T00:41:48.340Z,0
2022-12-11T00:46:49.812Z,0
2022-12-11T00:51:51.314Z,0
2022-12-11T00:56:52.902Z,0
2022-12-11T01:01:54.353Z,0
2022-12-11T01:06:56.484Z,0
2022-12-11T01:11:58.170Z,0
2022-12-11T01:16:59.620Z,0
2022-12-11T01:22:01.130Z,0
2022-12-11T01:27:02.597Z,0
2022-12-11T01:32:04.018Z,0
2022-12-11T01:37:05.427Z,0
2022-12-11T01:42:07.171Z,0
2022-12-11T01:47:08.592Z,0
2022-12-11T01:52:10.142Z,0
2022-12-11T01:57:11.742Z,0
2022-12-11T02:02:13.412Z,0
2022-12-11T02:07:15.164Z,0
2022-12-11T02:12:17.368Z,0
2022-12-11T02:17:19.018Z,0
2022-12-11T02:22:20.512Z,0
2022-12-11T02:27:22.000Z,0
2022-12-11T02:32:24.027Z,0
2022-12-11T02:37:25.930Z,0.88715
2022-12-11T02:42:27.975Z,0.88715
2022-12-11T02:47:29.752Z,0
2022-12-11T02:52:31.590Z,0.8296
2022-12-11T02:57:33.414Z,1.83695
2022-12-11T03:02:35.214Z,5.93855
2022-12-11T03:07:37.019Z,14.0715
2022-12-11T03:12:39.139Z,23.4956
2022-12-11T03:17:41.082Z,34.45045
2022-12-11T03:22:43.002Z,49.99755
2022-12-11T03:27:44.926Z,70.69025
2022-12-11T03:32:46.860Z,98.2799
2022-12-11T03:37:48.721Z,131.3099
2022-12-11T03:42:50.779Z,169.55965
2022-12-11T03:47:52.447Z,205.596
2022-12-11T03:52:54.284Z,253.12155
2022-12-11T03:57:55.959Z,270.0701
2022-12-11T04:02:57.778Z,280.87665
2022-12-11T04:07:59.648Z,301.05215
2022-12-11T04:13:01.822Z,321.5604
2022-12-11T04:18:03.997Z,386.47755
2022-12-11T04:23:05.967Z,387.5291
2022-12-11T04:28:07.655Z,377.69995
2022-12-11T04:33:09.499Z,346.64375
2022-12-11T04:38:11.070Z,372.1493
2022-12-11T04:43:13.019Z,386.42425
2022-12-11T04:48:14.691Z,378.162
2022-12-11T04:53:16.061Z,399.3149
2022-12-11T04:58:22.649Z,403.16935
2022-12-11T05:03:24.128Z,443.1343
2022-12-11T05:08:25.631Z,460.56205
2022-12-11T05:13:27.350Z,560.64845
2022-12-11T05:18:28.871Z,582.20455
2022-12-11T05:23:30.331Z,693.8733
2022-12-11T05:28:31.963Z,673.5875
2022-12-11T05:33:33.650Z,694.35435
2022-12-11T05:38:35.074Z,776.9787
2022-12-11T05:43:36.756Z,719.2894
2022-12-11T05:48:38.369Z,868.8807
2022-12-11T05:53:40.222Z,925.7409
2022-12-11T05:58:42.136Z,798.02685
2022-12-11T06:03:44.112Z,666.9014
2022-12-11T06:08:45.959Z,643.5161
2022-12-11T06:13:48.076Z,654.876
2022-12-11T06:18:49.923Z,770.51505
2022-12-11T06:23:51.708Z,832.31925
2022-12-11T06:28:53.518Z,812.27305
2022-12-11T06:33:55.367Z,794.20065
2022-12-11T06:38:57.175Z,836.97035
2022-12-11T06:43:59.219Z,785.06945
2022-12-11T06:49:01.124Z,831.31125
2022-12-11T06:54:02.864Z,850.38375
2022-12-11T06:59:07.542Z,768.94025
2022-12-11T07:04:09.411Z,769.3073
2022-12-11T07:09:11.004Z,779.009
2022-12-11T07:14:12.742Z,787.0298
2022-12-11T07:19:14.193Z,813.8149
2022-12-11T07:24:15.654Z,830.37555
2022-12-11T07:29:17.083Z,808.9469
2022-12-11T07:34:18.565Z,757.6049
2022-12-11T07:39:19.977Z,766.3598
2022-12-11T07:44:21.813Z,848.4461
2022-12-11T07:49:23.364Z,775.1189
2022-12-11T07:54:24.900Z,866.57895
2022-12-11T07:59:26.557Z,825.3347
2022-12-11T08:04:28.107Z,546.58065
2022-12-11T08:09:29.619Z,631.3081
2022-12-11T08:14:31.406Z,515.38355
2022-12-11T08:19:33.032Z,476.5749
2022-12-11T08:24:34.795Z,528.80485
2022-12-11T08:29:37.216Z,581.6813
2022-12-11T08:34:38.892Z,624.31985
2022-12-11T08:39:40.647Z,569.91265
2022-12-11T08:44:42.568Z,566.31495
2022-12-11T08:49:44.142Z,853.12635
2022-12-11T08:54:45.747Z,713.59365
2022-12-11T08:59:47.644Z,694.49475
2022-12-11T09:04:49.281Z,924.2351
2022-12-11T09:09:50.956Z,760.7656
2022-12-11T09:14:52.846Z,883.04535
2022-12-11T09:19:54.461Z,1016.9138
2022-12-11T09:24:56.715Z,1013.83275
2022-12-11T09:29:58.464Z,1006.30695
2022-12-11T09:35:00.335Z,1030.3064
2022-12-11T09:40:07.329Z,1135.42785
2022-12-11T09:45:09.900Z,785.32065
2022-12-11T09:50:11.727Z,1092.40615
2022-12-11T09:55:13.665Z,600.8071
2022-12-11T10:00:15.386Z,474.13905
2022-12-11T10:05:16.936Z,495.82815
2022-12-11T10:10:18.470Z,603.3097
2022-12-11T10:15:20.110Z,670.81285
2022-12-11T10:20:21.747Z,715.46135
2022-12-11T10:30:39.531Z,750.8359
2022-12-11T10:35:41.135Z,932.8868
2022-12-11T10:40:42.641Z,713.2915
2022-12-11T10:45:44.293Z,726.93525
2022-12-11T10:50:45.821Z,1075.27995
2022-12-11T10:55:47.283Z,376.61595
2022-12-11T11:00:48.989Z,367.30215
2022-12-11T11:05:50.509Z,384.95235
2022-12-11T11:10:51.941Z,442.0503
2022-12-11T11:15:53.567Z,426.09815
2022-12-11T11:20:55.083Z,508.26045
2022-12-11T11:25:56.823Z,437.3116
2022-12-11T11:30:58.412Z,429.2148
2022-12-11T11:35:59.892Z,430.06105
2022-12-11T11:41:06.632Z,446.1425
2022-12-11T11:46:11.052Z,475.4112
2022-12-11T11:51:12.597Z,528.0462
2022-12-11T11:56:14.120Z,542.0987
2022-12-11T12:01:15.941Z,680.06595
2022-12-11T12:06:17.518Z,735.59885
2022-12-11T12:11:18.936Z,568.69565
2022-12-11T12:16:51.028Z,419.5511
2022-12-11T12:21:53.598Z,510.1411
2022-12-11T12:26:55.100Z,553.9072
2022-12-11T12:31:56.615Z,383.0527
2022-12-11T12:36:58.109Z,276.19495
2022-12-11T12:42:05.658Z,308.22855
2022-12-11T12:47:09.499Z,451.43455
2022-12-11T12:52:11.103Z,672.5072
2022-12-11T12:57:12.542Z,682.0453
2022-12-11T13:02:14.057Z,250.59995
2022-12-11T13:07:15.579Z,187.303
2022-12-11T13:12:17.011Z,173.56425
2022-12-11T13:17:18.920Z,165.81735
2022-12-11T13:22:20.879Z,158.21875
2022-12-11T13:27:22.566Z,145.5297
2022-12-11T13:32:24.521Z,165.9828
2022-12-11T13:37:26.342Z,174.9467
2022-12-11T13:42:28.356Z,202.7208
2022-12-11T13:47:30.347Z,311.6798
2022-12-11T13:52:32.133Z,260.0412
2022-12-11T13:57:34.135Z,203.5879
2022-12-11T14:02:36.354Z,163.0316
2022-12-11T14:07:38.493Z,93.024
2022-12-11T14:12:40.286Z,51.5283
2022-12-11T14:17:45.887Z,64.80685
2022-12-11T14:22:50.296Z,150.01165
2022-12-11T14:27:51.904Z,144.2024
2022-12-11T14:32:53.323Z,108.12805
2022-12-11T14:37:55.136Z,104.32875
2022-12-11T14:43:00.177Z,45.22085
2022-12-11T14:48:02.596Z,40.0201
2022-12-11T14:53:04.544Z,66.4479
2022-12-11T14:58:06.306Z,55.069
2022-12-11T15:03:07.855Z,42.39895
2022-12-11T15:08:09.692Z,31.38895
2022-12-11T15:13:11.508Z,30.04265
2022-12-11T15:18:13.359Z,24.41785
2022-12-11T15:23:18.656Z,41.31125
2022-12-11T15:28:20.456Z,61.02655
2022-12-11T15:33:22.073Z,58.758
2022-12-11T15:38:23.521Z,49.3339
2022-12-11T15:43:25.093Z,35.1331
2022-12-11T15:48:27.033Z,25.3401
2022-12-11T15:53:28.431Z,27.71895
2022-12-11T15:58:29.920Z,26.6864
2022-12-11T16:03:31.731Z,18.9775
2022-12-11T16:08:33.504Z,19.16195
2022-12-11T16:13:35.366Z,16.8934
2022-12-11T16:18:37.256Z,13.03895
2022-12-11T16:23:38.982Z,10.34635
2022-12-11T16:28:40.892Z,8.26225
2022-12-11T16:33:42.631Z,3.6147
2022-12-11T16:38:49.803Z,5.7541
2022-12-11T16:43:55.077Z,3.24595
2022-12-11T16:48:56.984Z,2.13325
2022-12-11T16:53:58.756Z,1.71845
2022-12-11T16:59:00.431Z,2.3237
2022-12-11T17:04:01.976Z,1.16185
2022-12-11T17:09:03.596Z,0
2022-12-11T17:14:05.083Z,0.88715
2022-12-11T17:19:06.703Z,0
2022-12-11T17:24:08.289Z,0
2022-12-11T17:29:09.741Z,0
2022-12-11T17:34:11.437Z,0
2022-12-11T17:39:12.967Z,0
2022-12-11T17:44:14.428Z,0
2022-12-11T17:49:16.145Z,0
2022-12-11T17:54:17.645Z,0
2022-12-11T17:59:19.154Z,0
2022-12-11T18:04:20.711Z,0
2022-12-11T18:09:22.261Z,0
2022-12-11T18:14:23.689Z,0
2022-12-11T18:19:25.909Z,0
2022-12-11T18:24:27.365Z,0
2022-12-11T18:29:28.922Z,0
2022-12-11T18:34:30.473Z,0
2022-12-11T18:39:32.151Z,0
2022-12-11T18:44:33.813Z,0
2022-12-11T18:49:35.567Z,0
2022-12-11T18:54:37.177Z,0
2022-12-11T18:59:38.656Z,0
2022-12-11T19:04:40.119Z,0
2022-12-11T19:09:46.184Z,0
2022-12-11T19:14:49.738Z,0
2022-12-11T19:19:51.647Z,0
2022-12-11T19:24:53.480Z,0
2022-12-11T19:29:55.350Z,0
2022-12-11T19:34:57.038Z,0
2022-12-11T19:39:58.899Z,0
2022-12-11T19:45:00.583Z,0
2022-12-11T19:50:02.663Z,0
2022-12-11T19:55:05.154Z,0
2022-12-11T20:00:06.987Z,0
2022-12-11T20:05:08.774Z,0
2022-12-11T20:10:10.607Z,0
2022-12-11T20:15:12.681Z,0
2022-12-11T20:20:14.871Z,0
2022-12-11T20:25:16.406Z,0
2022-12-11T20:30:17.930Z,0
2022-12-11T20:35:19.509Z,0
2022-12-11T20:40:20.929Z,0
2022-12-11T20:45:22.404Z,0
2022-12-11T20:50:24.264Z,0
2022-12-11T20:55:26.183Z,0
2022-12-11T21:00:28.039Z,0
2022-12-11T21:05:29.971Z,0
2022-12-11T21:10:31.787Z,0
2022-12-11T21:15:33.547Z,0
2022-12-11T21:20:35.704Z,0
2022-12-11T21:25:37.616Z,0
2022-12-11T21:30:39.396Z,0
2022-12-11T21:35:41.508Z,0
2022-12-11T21:40:43.411Z,0
2022-12-11T21:46:00.902Z,0
2022-12-11T21:51:03.771Z,0
2022-12-11T21:56:05.553Z,0
2022-12-11T22:01:07.350Z,0
2022-12-11T22:06:10.049Z,0
2022-12-11T22:11:11.850Z,0
2022-12-11T22:16:13.742Z,0
2022-12-11T22:21:15.590Z,0
2022-12-11T22:26:17.368Z,0
2022-12-11T22:31:19.309Z,0
2022-12-11T22:36:20.894Z,0
2022-12-11T22:41:22.694Z,0
2022-12-11T22:46:24.328Z,0
2022-12-11T22:51:26.302Z,0
2022-12-11T22:56:28.111Z,0
2022-12-11T23:01:29.555Z,0
2022-12-11T23:06:31.669Z,0
2022-12-11T23:11:33.147Z,0
2022-12-11T23:16:34.959Z,0
2022-12-11T23:21:36.942Z,0
2022-12-11T23:26:38.607Z,0
2022-12-11T23:31:40.426Z,0
2022-12-11T23:36:42.209Z,0
2022-12-11T23:41:44.080Z,0
2022-12-11T23:46:45.787Z,0
2022-12-11T23:51:47.810Z,0
2022-12-11T23:56:49.588Z,0
